createdAt,value
2022-09-05T00:01:45.478Z,5.38
2022-09-05T00:04:24.947Z,5.68
2022-09-05T00:07:01.759Z,7.07
2022-09-05T00:09:36.892Z,6.85
2022-09-05T00:12:04.142Z,4.75
2022-09-05T00:15:16.626Z,6.05
2022-09-05T00:19:30.496Z,4.97
2022-09-05T00:24:27.645Z,6.53
2022-09-05T00:24:29.934Z,6.40
2022-09-05T00:26:50.377Z,4.75
2022-09-05T00:30:57.360Z,6.25
2022-09-05T00:32:36.177Z,7.10
2022-09-05T00:35:21.178Z,9.07
2022-09-05T00:37:53.184Z,8.77
2022-09-05T00:40:23.446Z,10.93
2022-09-05T00:42:53.060Z,9.18
2022-09-05T00:45:25.167Z,6.57
2022-09-05T00:48:12.203Z,7.78
2022-09-05T00:50:44.656Z,6.07
2022-09-05T00:53:16.492Z,9.57
2022-09-05T00:56:01.459Z,6.75
2022-09-05T00:58:34.032Z,6.53
2022-09-05T01:01:03.152Z,5.80
2022-09-05T01:03:47.004Z,6.22
2022-09-05T01:06:31.738Z,8.23
2022-09-05T01:09:13.430Z,5.50
2022-09-05T01:11:42.646Z,6.90
2022-09-05T01:14:13.171Z,7.78
2022-09-05T01:17:04.361Z,5.60
2022-09-05T01:19:45.738Z,6.40
2022-09-05T01:22:30.742Z,8.20
2022-09-05T01:25:06.288Z,9.00
2022-09-05T01:29:13.212Z,12.93
2022-09-05T01:30:57.459Z,9.48
2022-09-05T01:33:26.973Z,11.27
2022-09-05T01:36:13.456Z,10.52
2022-09-05T01:39:55.220Z,11.13
2022-09-05T01:41:48.358Z,7.53
2022-09-05T01:44:33.110Z,6.53
2022-09-05T01:47:07.948Z,6.35
2022-09-05T01:49:41.995Z,11.73
2022-09-05T01:52:16.935Z,6.68
2022-09-05T01:54:56.553Z,6.50
2022-09-05T01:57:31.912Z,6.75
2022-09-05T02:00:04.330Z,6.25
2022-09-05T02:02:50.217Z,11.25
2022-09-05T02:05:25.227Z,8.77
2022-09-05T02:08:08.864Z,14.18
2022-09-05T02:10:53.802Z,11.50
2022-09-05T02:13:20.138Z,9.80
2022-09-05T02:15:59.762Z,10.45
2022-09-05T02:18:44.167Z,13.68
2022-09-05T02:21:56.019Z,14.27
2022-09-05T02:24:32.923Z,10.27
2022-09-05T02:27:47.572Z,8.55
2022-09-05T02:30:08.025Z,10.68
2022-09-05T02:32:47.065Z,11.63
2022-09-05T02:35:25.820Z,7.45
2022-09-05T02:40:07.739Z,11.90
2022-09-05T02:45:13.546Z,6.40
2022-09-05T02:45:24.468Z,6.47
2022-09-05T02:46:56.099Z,8.07
2022-09-05T02:52:14.246Z,7.97
2022-09-05T02:57:28.116Z,7.13
2022-09-05T02:57:45.326Z,8.60
2022-09-05T02:58:14.868Z,7.97
2022-09-05T03:00:48.129Z,10.48
2022-09-05T03:03:17.339Z,6.88
2022-09-05T03:05:56.607Z,8.63
2022-09-05T03:08:31.381Z,6.55
2022-09-05T03:10:58.738Z,6.35
2022-09-05T03:13:51.778Z,7.05
2022-09-05T03:16:40.588Z,5.72
2022-09-05T03:19:32.471Z,6.97
2022-09-05T03:22:22.617Z,5.38
2022-09-05T03:24:59.137Z,7.05
2022-09-05T03:27:29.407Z,7.32
2022-09-05T03:30:05.033Z,7.65
2022-09-05T03:32:41.084Z,7.97
2022-09-05T03:35:27.233Z,6.47
2022-09-05T03:37:59.448Z,7.38
2022-09-05T03:40:36.431Z,7.53
2022-09-05T03:43:05.544Z,6.88
2022-09-05T03:45:45.281Z,6.80
2022-09-05T03:48:28.312Z,12.00
2022-09-05T03:57:11.650Z,9.20
2022-09-05T03:57:17.964Z,7.10
2022-09-05T03:57:32.310Z,10.13
2022-09-05T04:00:09.425Z,6.03
2022-09-05T04:08:05.876Z,10.77
2022-09-05T04:08:18.711Z,7.43
2022-09-05T04:08:49.436Z,10.57
2022-09-05T04:11:15.880Z,7.75
2022-09-05T04:14:02.792Z,9.20
2022-09-05T04:16:33.421Z,9.00
2022-09-05T04:19:09.525Z,10.98
2022-09-05T04:21:44.225Z,14.10
2022-09-05T04:24:13.268Z,17.65
2022-09-05T04:26:51.748Z,13.88
2022-09-05T04:29:23.785Z,14.93
2022-09-05T04:32:17.898Z,12.98
2022-09-05T04:34:45.830Z,15.05
2022-09-05T04:37:37.141Z,17.05
2022-09-05T04:40:32.953Z,14.73
2022-09-05T04:43:02.262Z,17.02
2022-09-05T04:45:30.762Z,14.32
2022-09-05T04:47:59.522Z,18.63
2022-09-05T04:50:37.216Z,14.82
2022-09-05T04:53:10.705Z,18.05
2022-09-05T04:55:50.497Z,20.60
2022-09-05T05:00:36.803Z,16.08
2022-09-05T05:06:01.810Z,17.38
2022-09-05T05:06:09.582Z,16.58
2022-09-05T05:07:24.851Z,18.42
2022-09-05T05:11:22.871Z,21.10
2022-09-05T05:12:42.929Z,17.65
2022-09-05T05:18:13.108Z,16.20
2022-09-05T05:18:42.413Z,14.02
2022-09-05T05:21:26.464Z,19.45
2022-09-05T05:23:57.225Z,12.00
2022-09-05T05:26:30.113Z,14.48
2022-09-05T05:29:09.772Z,14.52
2022-09-05T05:31:46.083Z,12.60
2022-09-05T05:34:38.809Z,13.50
2022-09-05T05:37:08.760Z,13.95
2022-09-05T05:39:38.536Z,12.70
2022-09-05T05:42:20.910Z,10.45
2022-09-05T05:44:54.549Z,12.13
2022-09-05T05:47:34.223Z,10.18
2022-09-05T05:50:02.399Z,10.73
2022-09-05T05:52:43.754Z,14.73
2022-09-05T05:55:51.950Z,10.50
2022-09-05T05:58:16.020Z,9.75
2022-09-05T06:00:54.636Z,9.20
2022-09-05T06:03:42.755Z,10.15
2022-09-05T06:06:21.166Z,9.63
2022-09-05T06:13:11.031Z,10.63
2022-09-05T06:14:58.566Z,11.55
2022-09-05T06:15:21.212Z,12.20
2022-09-05T06:18:05.521Z,9.43
2022-09-05T06:22:09.506Z,10.43
2022-09-05T06:23:40.289Z,8.10
2022-09-05T06:26:29.793Z,7.95
2022-09-05T06:28:59.251Z,7.30
2022-09-05T06:31:44.327Z,7.47
2022-09-05T06:34:12.971Z,6.75
2022-09-05T06:36:57.941Z,9.98
2022-09-05T06:39:36.910Z,15.77
2022-09-05T06:42:42.578Z,11.27
2022-09-05T06:45:27.914Z,10.93
2022-09-05T06:47:58.925Z,14.93
2022-09-05T06:50:29.282Z,12.00
2022-09-05T06:53:19.963Z,9.88
2022-09-05T06:55:56.930Z,11.32
2022-09-05T06:58:42.374Z,10.75
2022-09-05T07:01:09.254Z,12.88
2022-09-05T07:03:55.988Z,9.73
2022-09-05T07:06:25.233Z,9.57
2022-09-05T07:09:23.427Z,13.00
2022-09-05T07:12:07.422Z,5.68
2022-09-05T07:14:54.789Z,9.88
2022-09-05T07:17:23.457Z,8.02
2022-09-05T07:19:54.955Z,10.43
2022-09-05T07:22:47.547Z,9.73
2022-09-05T07:25:18.381Z,9.63
2022-09-05T07:28:25.882Z,8.23
2022-09-05T07:30:38.940Z,10.27
2022-09-05T07:33:05.645Z,9.63
2022-09-05T07:35:41.868Z,6.43
2022-09-05T07:38:14.593Z,9.45
2022-09-05T07:40:46.693Z,9.32
2022-09-05T07:43:19.102Z,12.55
2022-09-05T07:45:55.521Z,6.38
2022-09-05T07:48:34.314Z,7.50
2022-09-05T07:56:54.607Z,5.13
2022-09-05T07:57:03.983Z,9.02
2022-09-05T07:57:20.816Z,5.93
2022-09-05T07:59:35.907Z,8.63
2022-09-05T08:02:02.282Z,5.28
2022-09-05T08:04:28.568Z,3.95
2022-09-05T08:07:46.774Z,6.07
2022-09-05T08:10:06.638Z,6.25
2022-09-05T08:13:22.700Z,4.50
2022-09-05T08:15:38.310Z,8.57
2022-09-05T08:18:20.556Z,6.60
2022-09-05T08:20:49.986Z,5.85
2022-09-05T08:23:19.425Z,8.65
2022-09-05T08:25:57.982Z,4.10
2022-09-05T08:28:24.318Z,8.07
2022-09-05T08:31:01.296Z,8.90
2022-09-05T08:33:32.641Z,12.88
2022-09-05T08:36:03.130Z,5.72
2022-09-05T08:38:40.621Z,9.43
2022-09-05T08:41:10.847Z,13.18
2022-09-05T08:46:35.773Z,9.80
2022-09-05T08:46:48.479Z,8.48
2022-09-05T08:49:38.798Z,10.65
2022-09-05T08:52:10.590Z,7.75
2022-09-05T08:54:58.208Z,4.65
2022-09-05T08:57:51.151Z,6.00
2022-09-05T09:00:24.241Z,5.72
2022-09-05T09:03:10.160Z,10.75
2022-09-05T09:06:13.620Z,9.00
2022-09-05T09:09:08.234Z,3.65
2022-09-05T09:11:38.011Z,5.03
2022-09-05T09:14:30.397Z,6.47
2022-09-05T09:17:07.118Z,3.53
2022-09-05T09:19:48.367Z,5.65
2022-09-05T09:22:14.647Z,7.68
2022-09-05T09:24:42.723Z,7.70
2022-09-05T09:27:36.433Z,4.75
2022-09-05T09:30:19.677Z,5.38
2022-09-05T09:32:47.973Z,5.68
2022-09-05T09:35:17.053Z,5.05
2022-09-05T09:37:55.360Z,7.60
2022-09-05T09:40:25.129Z,6.47
2022-09-05T09:43:05.231Z,8.48
2022-09-05T09:45:53.078Z,5.18
2022-09-05T09:48:22.166Z,4.05
2022-09-05T09:51:06.962Z,5.45
2022-09-05T09:53:35.243Z,2.88
2022-09-05T09:56:22.496Z,9.40
2022-09-05T09:58:48.705Z,3.47
2022-09-05T10:01:35.388Z,6.85
2022-09-05T10:10:34.989Z,3.13
2022-09-05T10:10:44.212Z,4.00
2022-09-05T10:10:52.852Z,3.30
2022-09-05T10:13:24.381Z,3.75
2022-09-05T10:16:11.832Z,4.20
2022-09-05T10:19:00.625Z,9.05
2022-09-05T10:21:39.900Z,6.80
2022-09-05T10:24:38.385Z,3.28
2022-09-05T10:27:19.778Z,3.63
2022-09-05T10:30:06.287Z,6.38
2022-09-05T10:35:11.674Z,4.47
2022-09-05T10:35:51.827Z,2.85
2022-09-05T10:38:20.294Z,3.33
2022-09-05T10:41:19.787Z,3.47
2022-09-05T10:43:42.351Z,3.65
2022-09-05T10:46:48.933Z,5.55
2022-09-05T10:49:13.322Z,7.10
2022-09-05T10:51:45.466Z,3.40
2022-09-05T10:54:24.212Z,2.80
2022-09-05T10:56:56.774Z,2.63
2022-09-05T11:01:49.983Z,4.10
2022-09-05T11:02:34.071Z,5.45
2022-09-05T11:05:11.462Z,3.20
2022-09-05T11:07:43.724Z,3.47
2022-09-05T11:10:17.208Z,2.85
2022-09-05T11:12:52.455Z,5.07
2022-09-05T11:15:30.083Z,3.45
2022-09-05T11:18:05.642Z,2.65
2022-09-05T11:20:34.820Z,4.57
2022-09-05T11:23:10.289Z,1.52
2022-09-05T11:25:40.517Z,5.05
2022-09-05T11:28:14.429Z,3.47
2022-09-05T11:30:43.982Z,5.88
2022-09-05T11:39:48.383Z,4.68
2022-09-05T11:39:54.098Z,5.20
2022-09-05T11:39:57.629Z,2.10
2022-09-05T11:42:01.355Z,3.13
2022-09-05T11:44:54.801Z,3.60
2022-09-05T11:47:43.488Z,2.47
2022-09-05T11:50:19.935Z,5.22
2022-09-05T11:52:46.143Z,3.47
2022-09-05T11:55:31.009Z,2.25
2022-09-05T12:00:44.157Z,4.95
2022-09-05T12:03:41.508Z,3.15
2022-09-05T12:06:18.003Z,8.75
2022-09-05T12:09:07.711Z,3.42
2022-09-05T12:11:53.675Z,4.78
2022-09-05T12:14:35.365Z,6.97
2022-09-05T12:17:10.512Z,4.70
2022-09-05T12:19:51.778Z,2.80
2022-09-05T12:22:29.387Z,3.75
2022-09-05T12:25:27.493Z,3.50
2022-09-05T12:29:26.025Z,2.45
2022-09-05T12:33:32.711Z,2.72
2022-09-05T12:36:07.079Z,2.22
2022-09-05T12:40:27.586Z,2.33
2022-09-05T12:41:32.021Z,6.22
2022-09-05T12:42:40.094Z,2.38
2022-09-05T12:45:26.654Z,4.07
2022-09-05T12:48:10.187Z,5.28
2022-09-05T12:50:52.208Z,3.22
2022-09-05T12:53:19.393Z,3.78
2022-09-05T12:58:15.142Z,4.75
2022-09-05T13:03:05.818Z,4.18
2022-09-05T13:03:10.947Z,4.57
2022-09-05T13:04:32.735Z,4.28
2022-09-05T13:07:09.546Z,4.20
2022-09-05T13:11:10.050Z,3.63
2022-09-05T13:15:02.797Z,3.33
2022-09-05T13:15:23.635Z,7.68
2022-09-05T13:17:53.548Z,5.75
2022-09-05T13:20:19.873Z,5.70
2022-09-05T13:22:50.374Z,3.47
2022-09-05T13:25:24.921Z,2.53
2022-09-05T13:32:57.356Z,4.90
2022-09-05T13:38:01.202Z,2.67
2022-09-05T13:38:01.628Z,4.78
2022-09-05T13:39:00.889Z,3.67
2022-09-05T13:41:29.802Z,4.35
2022-09-05T13:44:26.676Z,5.10
2022-09-05T13:46:48.136Z,1.50
2022-09-05T13:49:26.473Z,2.97
2022-09-05T13:52:15.724Z,4.30
2022-09-05T13:54:50.992Z,4.22
2022-09-05T13:57:31.428Z,2.90
2022-09-05T14:00:27.657Z,1.50
2022-09-05T14:03:39.213Z,5.88
2022-09-05T14:06:30.795Z,2.78
2022-09-05T14:12:11.395Z,3.45
2022-09-05T14:15:14.056Z,4.43
2022-09-05T14:18:02.925Z,5.45
2022-09-05T14:21:10.564Z,4.35
2022-09-05T14:23:44.384Z,4.47
2022-09-05T14:26:36.741Z,1.83
2022-09-05T14:29:20.442Z,3.75
2022-09-05T14:37:12.981Z,3.85
2022-09-05T14:37:42.037Z,1.83
2022-09-05T14:38:04.364Z,6.40
2022-09-05T14:40:55.498Z,5.57
2022-09-05T14:43:40.451Z,4.47
2022-09-05T14:46:25.959Z,2.03
2022-09-05T14:48:54.335Z,3.35
2022-09-05T14:51:39.227Z,6.18
2022-09-05T14:54:05.709Z,3.38
2022-09-05T14:57:23.008Z,3.10
2022-09-05T15:02:50.079Z,3.75
2022-09-05T15:02:54.061Z,1.77
2022-09-05T15:05:11.296Z,4.00
2022-09-05T15:07:40.140Z,4.40
2022-09-05T15:12:21.379Z,2.65
2022-09-05T15:13:02.111Z,2.35
2022-09-05T15:15:35.781Z,2.97
2022-09-05T15:18:04.768Z,3.75
2022-09-05T15:20:33.234Z,2.33
2022-09-05T15:23:00.023Z,4.40
2022-09-05T15:25:58.079Z,11.50
2022-09-05T15:28:33.363Z,7.40
2022-09-05T15:31:04.682Z,2.13
2022-09-05T15:33:31.568Z,4.53
2022-09-05T15:35:59.149Z,4.75
2022-09-05T15:38:30.690Z,1.70
2022-09-05T15:41:09.293Z,4.95
2022-09-05T15:43:58.359Z,4.70
2022-09-05T15:46:30.644Z,9.68
2022-09-05T15:49:03.888Z,5.50
2022-09-05T15:51:50.425Z,16.52
2022-09-05T15:54:29.336Z,23.27
2022-09-05T15:57:05.974Z,8.98
2022-09-05T15:59:37.810Z,12.85
2022-09-05T16:02:09.548Z,15.00
2022-09-05T16:08:25.128Z,7.63
2022-09-05T16:10:35.541Z,9.43
2022-09-05T16:10:37.273Z,14.52
2022-09-05T16:13:12.294Z,17.40
2022-09-05T16:22:26.608Z,9.98
2022-09-05T16:23:27.188Z,4.60
2022-09-05T16:23:27.786Z,5.43
2022-09-05T16:24:16.619Z,7.45
2022-09-05T16:26:46.940Z,3.42
2022-09-05T16:29:26.120Z,4.75
2022-09-05T16:32:15.964Z,4.32
2022-09-05T16:34:48.368Z,3.83
2022-09-05T16:37:27.851Z,7.30
2022-09-05T16:39:58.849Z,9.32
2022-09-05T16:42:46.025Z,2.08
2022-09-05T16:45:18.321Z,5.90
2022-09-05T16:47:52.416Z,4.50
2022-09-05T16:50:24.598Z,9.98
2022-09-05T16:53:05.421Z,2.72
2022-09-05T16:55:54.789Z,5.45
2022-09-05T16:58:24.436Z,1.60
2022-09-05T17:01:05.964Z,2.33
2022-09-05T17:03:32.245Z,1.80
2022-09-05T17:06:05.113Z,4.68
2022-09-05T17:08:33.131Z,4.40
2022-09-05T17:11:03.301Z,4.55
2022-09-05T17:13:30.178Z,11.18
2022-09-05T17:15:56.972Z,10.80
2022-09-05T17:18:26.883Z,13.80
2022-09-05T17:20:57.022Z,16.55
2022-09-05T17:27:42.824Z,10.55
2022-09-05T17:29:31.063Z,10.93
2022-09-05T17:29:46.854Z,7.65
2022-09-05T17:31:57.535Z,6.45
2022-09-05T17:34:31.915Z,8.80
2022-09-05T17:36:58.158Z,6.93
2022-09-05T17:39:44.254Z,3.20
2022-09-05T17:42:32.220Z,5.95
2022-09-05T17:45:10.813Z,2.78
2022-09-05T17:48:06.277Z,4.72
2022-09-05T17:53:25.189Z,3.83
2022-09-05T17:55:49.124Z,4.78
2022-09-05T17:58:21.985Z,3.25
2022-09-05T18:00:51.230Z,6.63
2022-09-05T18:03:40.370Z,6.45
2022-09-05T18:06:07.019Z,4.40
2022-09-05T18:08:52.654Z,5.55
2022-09-05T18:11:27.356Z,3.58
2022-09-05T18:17:37.752Z,5.22
2022-09-05T18:19:49.465Z,4.05
2022-09-05T18:22:26.971Z,5.43
2022-09-05T18:24:53.206Z,6.25
2022-09-05T18:28:03.879Z,6.85
2022-09-05T18:30:29.340Z,3.53
2022-09-05T18:33:55.161Z,5.93
2022-09-05T18:35:50.826Z,4.53
2022-09-05T18:38:29.533Z,5.97
2022-09-05T18:41:13.592Z,5.22
2022-09-05T18:44:00.556Z,6.40
2022-09-05T18:46:39.776Z,7.60
2022-09-05T18:50:21.817Z,9.13
2022-09-05T18:52:07.234Z,4.97
2022-09-05T18:54:35.360Z,6.47
2022-09-05T18:57:28.257Z,5.63
2022-09-05T18:59:51.699Z,4.07
2022-09-05T19:02:51.541Z,2.97
2022-09-05T19:05:34.917Z,6.13
2022-09-05T19:08:03.683Z,4.72
2022-09-05T19:10:35.438Z,4.00
2022-09-05T19:13:15.490Z,4.07
2022-09-05T19:15:48.066Z,4.93
2022-09-05T19:18:27.023Z,4.90
2022-09-05T19:21:04.503Z,6.97
2022-09-05T19:23:35.990Z,8.07
2022-09-05T19:26:08.270Z,7.35
2022-09-05T19:36:51.164Z,4.80
2022-09-05T19:36:57.235Z,6.57
2022-09-05T19:36:58.908Z,4.00
2022-09-05T19:37:27.539Z,6.00
2022-09-05T19:47:25.753Z,7.37
2022-09-05T19:47:38.376Z,7.95
2022-09-05T19:47:51.861Z,4.00
2022-09-05T19:48:27.510Z,6.72
2022-09-05T19:50:54.897Z,4.75
2022-09-05T19:53:21.759Z,7.03
2022-09-05T19:55:51.223Z,6.90
2022-09-05T19:58:20.769Z,4.90
2022-09-05T20:01:00.613Z,5.55
2022-09-05T20:03:27.793Z,6.20
2022-09-05T20:05:54.078Z,3.28
2022-09-05T20:08:31.155Z,4.10
2022-09-05T20:11:04.440Z,3.17
2022-09-05T20:13:30.685Z,6.47
2022-09-05T20:15:57.301Z,7.68
2022-09-05T20:18:25.185Z,5.32
2022-09-05T20:20:56.819Z,3.78
2022-09-05T20:23:24.420Z,5.88
2022-09-05T20:25:51.674Z,5.80
2022-09-05T20:28:19.765Z,3.10
2022-09-05T20:30:50.567Z,2.38
2022-09-05T20:33:25.410Z,5.30
2022-09-05T20:43:17.745Z,4.93
2022-09-05T20:43:24.765Z,3.47
2022-09-05T20:44:19.406Z,3.85
2022-09-05T20:52:06.837Z,4.45
2022-09-05T20:54:20.331Z,4.25
2022-09-05T20:54:23.437Z,5.55
2022-09-05T20:55:39.517Z,7.28
2022-09-05T20:58:11.874Z,6.10
2022-09-05T21:00:41.139Z,6.05
2022-09-05T21:03:37.752Z,4.68
2022-09-05T21:06:33.730Z,4.47
2022-09-05T21:09:09.697Z,5.20
2022-09-05T21:11:36.013Z,3.33
2022-09-05T21:14:04.276Z,4.65
2022-09-05T21:16:45.843Z,9.20
2022-09-05T21:19:25.510Z,5.68
2022-09-05T21:22:09.179Z,4.10
2022-09-05T21:24:35.687Z,5.95
2022-09-05T21:27:16.358Z,3.88
2022-09-05T21:29:42.987Z,7.47
2022-09-05T21:32:14.175Z,7.13
2022-09-05T21:34:44.786Z,6.95
2022-09-05T21:37:12.145Z,5.55
2022-09-05T21:39:58.699Z,7.05
2022-09-05T21:43:18.905Z,4.95
2022-09-05T21:47:35.580Z,4.85
2022-09-05T21:48:02.637Z,4.38
2022-09-05T21:50:32.625Z,4.35
2022-09-05T21:54:14.735Z,3.45
2022-09-05T21:59:21.710Z,3.55
2022-09-05T21:59:36.753Z,5.00
2022-09-05T22:01:20.178Z,4.30
2022-09-05T22:04:07.350Z,8.60
2022-09-05T22:06:33.627Z,4.72
2022-09-05T22:09:13.006Z,3.25
2022-09-05T22:11:39.780Z,4.03
2022-09-05T22:14:06.090Z,3.65
2022-09-05T22:16:33.175Z,3.05
2022-09-05T22:19:00.649Z,4.07
2022-09-05T22:21:33.958Z,7.15
2022-09-05T22:24:03.409Z,6.50
2022-09-05T22:27:01.275Z,4.93
2022-09-05T22:29:27.759Z,9.07
2022-09-05T22:31:54.638Z,6.38
2022-09-05T22:34:22.340Z,6.55
2022-09-05T22:36:48.957Z,5.82
2022-09-05T22:39:16.607Z,4.53
2022-09-05T22:42:01.598Z,6.35
2022-09-05T22:44:32.309Z,3.80
2022-09-05T22:46:58.640Z,7.35
2022-09-05T22:49:24.940Z,3.58
2022-09-05T22:51:51.218Z,3.95
2022-09-05T22:54:17.472Z,5.40
2022-09-05T22:56:43.852Z,4.65
2022-09-05T22:59:14.664Z,5.88
2022-09-05T23:01:41.082Z,7.50
2022-09-05T23:04:07.439Z,5.10
2022-09-05T23:06:33.682Z,4.28
2022-09-05T23:08:59.999Z,3.72
2022-09-05T23:11:26.269Z,5.57
2022-09-05T23:13:52.545Z,4.38
2022-09-05T23:16:18.918Z,4.45
2022-09-05T23:18:45.204Z,11.85
2022-09-05T23:21:12.680Z,5.70
2022-09-05T23:23:39.564Z,3.47
2022-09-05T23:26:07.654Z,6.28
2022-09-05T23:28:33.896Z,4.07
2022-09-05T23:31:01.082Z,4.18
2022-09-05T23:33:27.785Z,3.67
2022-09-05T23:35:59.239Z,2.72
2022-09-05T23:38:25.597Z,6.45
2022-09-05T23:40:51.909Z,3.40
2022-09-05T23:43:18.181Z,5.93
2022-09-05T23:45:46.763Z,4.88
2022-09-05T23:48:13.364Z,4.32
2022-09-05T23:50:39.627Z,4.63
2022-09-05T23:53:05.861Z,6.13
2022-09-05T23:55:32.644Z,4.53
2022-09-05T23:57:58.944Z,5.18
